Exy Johnson — WDB3395 — position and weather

sailwx.info

Track history (hours):
 
Tides and Currents Weather Stations Pressure Air Temp Water Temp Dewpoint Dewpoint Depression Visibility Wind Speed Wind Dir Waves Ship Positions

Exy Johnson (United States)

Ship's website: http://www.lamitopsail.org/index.asp

Owner: Los Angeles Maritime Institute, San Pedro, CA. More information available from US FCC via Universal Licensing System and Coast Guard Vessel Documentation Center.

Last reported at 2019-Jun-16 01:00 UTC. Time now 2019-Jun-16 01:24 UTC.
Position N 33°43' W 118°16'.

Length 34 m; draft 3.7 m.

Type: Sailing vessel. MMSI: 366883970.

Date/timePositionNaut miles runAvg speedWind from/ knotsBaromVisibWave heightAir tempDewpointWater temp
2019-Jun-16 01:00N 33°43' W 118°16'2 3.3
2019-Jun-16 00:30N 33°44' W 118°17'0 0.8
2019-Jun-16 00:00N 33°44' W 118°17'0 0.0
2019-Jun-15 23:30N 33°44' W 118°17'0 0.0
2019-Jun-15 23:00N 33°44' W 118°17'1 1.9
2019-Jun-15 22:30N 33°43' W 118°16'3 5.6
2019-Jun-15 22:00N 33°44' W 118°13'1 1.6
2019-Jun-15 21:30N 33°43' W 118°14'1 1.0
2019-Jun-15 21:00N 33°43' W 118°13'3 5.2
2019-Jun-15 20:29N 33°43' W 118°16'1 1.6
2019-Jun-15 19:59N 33°44' W 118°17'0 0.0
2019-Jun-15 19:24N 33°44' W 118°17'0 0.0
2019-Jun-15 18:58N 33°44' W 118°17'0 0.0
2019-Jun-15 18:30N 33°44' W 118°17'0 0.0
2019-Jun-15 17:58N 33°44' W 118°17'0 0.0
2019-Jun-15 17:29N 33°44' W 118°17'0 0.0
2019-Jun-15 17:00N 33°44' W 118°17'0 0.0
2019-Jun-15 16:29N 33°44' W 118°17'0 0.0
2019-Jun-15 15:59N 33°44' W 118°17'0 0.0
2019-Jun-15 15:26N 33°44' W 118°17'0 0.0
2019-Jun-15 14:43N 33°44' W 118°17'0 0.0
2019-Jun-15 14:28N 33°44' W 118°17'0 0.0
2019-Jun-15 13:55N 33°44' W 118°17'0 0.0
2019-Jun-15 13:24N 33°44' W 118°17'0 0.0
2019-Jun-15 12:45N 33°44' W 118°17'0 0.0
2019-Jun-15 12:18N 33°44' W 118°17'0 0.0
2019-Jun-15 11:54N 33°44' W 118°17'0 0.0
2019-Jun-15 11:24N 33°44' W 118°17'0 0.0
2019-Jun-15 10:35N 33°44' W 118°17'0 0.0
2019-Jun-15 10:11N 33°44' W 118°17'0 0.0
2019-Jun-15 09:56N 33°44' W 118°17'0 0.0
2019-Jun-15 09:15N 33°44' W 118°17'0 0.0
2019-Jun-15 09:00N 33°44' W 118°17'0 0.0
2019-Jun-15 08:11N 33°44' W 118°17'0 0.0
2019-Jun-15 07:52N 33°44' W 118°17'0 0.0
2019-Jun-15 07:06N 33°44' W 118°17'0 0.0
2019-Jun-15 06:51N 33°44' W 118°17'0 0.0
2019-Jun-15 06:29N 33°44' W 118°17'0 0.0
2019-Jun-15 05:58N 33°44' W 118°17'0 0.0
2019-Jun-15 05:21N 33°44' W 118°17'0 0.0
2019-Jun-15 04:48N 33°44' W 118°17'0 0.0
2019-Jun-15 04:22N 33°44' W 118°17'0 0.0
2019-Jun-15 03:40N 33°44' W 118°17'0 0.0
2019-Jun-15 03:29N 33°44' W 118°17'0 0.0
2019-Jun-15 03:00N 33°44' W 118°17'0 0.0
2019-Jun-15 02:26N 33°44' W 118°17'0 0.0
2019-Jun-15 01:57N 33°44' W 118°17'0 0.0
2019-Jun-15 01:26N 33°44' W 118°17'0 0.0
2019-Jun-15 00:59N 33°44' W 118°17'0 0.0
2019-Jun-15 00:21N 33°44' W 118°17'0 0.0
2019-Jun-14 23:59N 33°44' W 118°17'0 0.0
2019-Jun-14 23:26N 33°44' W 118°17'1 1.4
2019-Jun-14 22:57N 33°43' W 118°16'2 4.1
2019-Jun-14 22:30N 33°43' W 118°14'1 1.6
2019-Jun-14 22:00N 33°43' W 118°15'2 2.8
2019-Jun-14 21:26N 33°44' W 118°16'0 0.9
2019-Jun-14 20:58N 33°44' W 118°17'0 0.0
2019-Jun-14 20:28N 33°44' W 118°17'0 0.0
2019-Jun-14 20:00N 33°44' W 118°17'0 0.0
2019-Jun-14 19:29N 33°44' W 118°17'0 0.0
2019-Jun-14 18:59N 33°44' W 118°17'0 0.0
2019-Jun-14 18:26N 33°44' W 118°17'0 0.0
2019-Jun-14 17:47N 33°44' W 118°17'0 0.0
2019-Jun-14 17:23N 33°44' W 118°17'0 0.0
2019-Jun-14 16:58N 33°44' W 118°17'0 0.0
2019-Jun-14 16:28N 33°44' W 118°17'0 0.0
2019-Jun-14 15:58N 33°44' W 118°17'0 0.0
2019-Jun-14 15:28N 33°44' W 118°17'0 0.0
2019-Jun-14 14:54N 33°44' W 118°17'0 0.0
2019-Jun-14 14:30N 33°44' W 118°17'0 0.0
2019-Jun-14 14:00N 33°44' W 118°17'0 0.0
2019-Jun-14 13:30N 33°44' W 118°17'0 0.0
2019-Jun-14 12:54N 33°44' W 118°17'0 0.0
2019-Jun-14 12:30N 33°44' W 118°17'0 0.0
2019-Jun-14 11:55N 33°44' W 118°17'0 0.0
2019-Jun-14 11:25N 33°44' W 118°17'0 0.0
2019-Jun-14 11:00N 33°44' W 118°17'0 0.0
2019-Jun-14 10:30N 33°44' W 118°17'0 0.0
2019-Jun-14 09:56N 33°44' W 118°17'0 0.0
2019-Jun-14 09:04N 33°44' W 118°17'0 0.0
2019-Jun-14 08:55N 33°44' W 118°17'0 0.0
2019-Jun-14 08:27N 33°44' W 118°17'0 0.0
2019-Jun-14 07:50N 33°44' W 118°17'0 0.0
2019-Jun-14 07:19N 33°44' W 118°17'0 0.0
2019-Jun-14 06:44N 33°44' W 118°17'0 0.0
2019-Jun-14 06:29N 33°44' W 118°17'0 0.0
2019-Jun-14 05:56N 33°44' W 118°17'0 0.0
2019-Jun-14 05:03N 33°44' W 118°17'0 0.0
2019-Jun-14 04:54N 33°44' W 118°17'0 0.0
2019-Jun-14 04:27N 33°44' W 118°17'0 0.0
2019-Jun-14 03:57N 33°44' W 118°17'0 0.0
2019-Jun-14 03:30N 33°44' W 118°17'0 0.0
2019-Jun-14 02:58N 33°44' W 118°17'0 0.0
2019-Jun-14 02:28N 33°44' W 118°17'0 0.0
2019-Jun-14 01:56N 33°44' W 118°17'0 0.0
2019-Jun-14 01:26N 33°44' W 118°17'0 0.0
2019-Jun-14 00:56N 33°44' W 118°17'0 0.0
2019-Jun-14 00:30N 33°44' W 118°17'0 0.0
2019-Jun-13 23:56N 33°44' W 118°17'0 0.0
2019-Jun-13 23:24N 33°44' W 118°17'0 0.0
2019-Jun-13 23:00N 33°44' W 118°17'0 0.0
2019-Jun-13 22:28N 33°44' W 118°17'0 0.0
2019-Jun-13 21:58N 33°44' W 118°17'0 0.0
2019-Jun-13 21:21N 33°44' W 118°17'0 0.0
2019-Jun-13 20:55N 33°44' W 118°17'0 0.0
2019-Jun-13 20:28N 33°44' W 118°17'0 0.0
2019-Jun-13 19:56N 33°44' W 118°17'0 0.0
2019-Jun-13 19:28N 33°44' W 118°17'0 0.0
2019-Jun-13 18:57N 33°44' W 118°17'0 0.0
2019-Jun-13 18:25N 33°44' W 118°17'0 0.0
2019-Jun-13 17:55N 33°44' W 118°17'0 0.0
2019-Jun-13 17:26N 33°44' W 118°17'0 0.0
2019-Jun-13 16:58N 33°44' W 118°17'0 0.0
2019-Jun-13 16:28N 33°44' W 118°17'0 0.0
2019-Jun-13 15:57N 33°44' W 118°17'0 0.0
2019-Jun-13 15:25N 33°44' W 118°17'0 0.0
2019-Jun-13 14:59N 33°44' W 118°17'0 0.0
2019-Jun-13 14:28N 33°44' W 118°17'0 0.0
2019-Jun-13 13:58N 33°44' W 118°17'0 0.0
2019-Jun-13 13:26N 33°44' W 118°17'0 0.0
2019-Jun-13 12:41N 33°44' W 118°17'0 0.0
2019-Jun-13 12:29N 33°44' W 118°17'0 0.0
2019-Jun-13 11:58N 33°44' W 118°17'0 0.0
2019-Jun-13 11:24N 33°44' W 118°17'0 0.0
2019-Jun-13 10:55N 33°44' W 118°17'0 0.0
2019-Jun-13 10:29N 33°44' W 118°17'0 0.0
2019-Jun-13 09:58N 33°44' W 118°17'0 0.0
2019-Jun-13 09:26N 33°44' W 118°17'0 0.0
2019-Jun-13 08:44N 33°44' W 118°17'0 0.0
2019-Jun-13 08:29N 33°44' W 118°17'0 0.0
2019-Jun-13 07:58N 33°44' W 118°17'0 0.0
2019-Jun-13 07:28N 33°44' W 118°17'0 0.0
2019-Jun-13 06:53N 33°44' W 118°17'0 0.0
2019-Jun-13 06:27N 33°44' W 118°17'0 0.0
2019-Jun-13 05:55N 33°44' W 118°17'0 0.0
2019-Jun-13 05:26N 33°44' W 118°17'0 0.0
2019-Jun-13 05:00N 33°44' W 118°17'0 0.0
2019-Jun-13 04:27N 33°44' W 118°17'0 0.0
2019-Jun-13 04:00N 33°44' W 118°17'0 0.0
2019-Jun-13 03:25N 33°44' W 118°17'0 0.0
2019-Jun-13 02:54N 33°44' W 118°17'0 0.0
2019-Jun-13 02:27N 33°44' W 118°17'0 0.0
2019-Jun-13 01:56N 33°44' W 118°17'0 0.0
2019-Jun-13 01:28N 33°44' W 118°17'0 0.0
2019-Jun-13 01:00N 33°44' W 118°17'0 0.0
2019-Jun-13 00:28N 33°44' W 118°17'0 0.0
2019-Jun-13 00:00N 33°44' W 118°17'0 0.0
2019-Jun-12 23:28N 33°44' W 118°17'0 0.0
2019-Jun-12 23:00N 33°44' W 118°17'0 0.0
2019-Jun-12 22:28N 33°44' W 118°17'0 0.0
2019-Jun-12 21:59N 33°44' W 118°17'0 0.0
2019-Jun-12 21:27N 33°44' W 118°17'0 0.0
2019-Jun-12 21:00N 33°44' W 118°17'0 0.0
2019-Jun-12 20:27N 33°44' W 118°17'0 0.0
2019-Jun-12 19:56N 33°44' W 118°17'0 0.0
2019-Jun-12 19:25N 33°44' W 118°17'0 0.0
2019-Jun-12 19:00N 33°44' W 118°17'0 0.0
2019-Jun-12 18:30N 33°44' W 118°17'0 0.0
2019-Jun-12 17:58N 33°44' W 118°17'0 0.0
2019-Jun-12 17:24N 33°44' W 118°17'0 0.0
2019-Jun-12 16:59N 33°44' W 118°17'0 0.0
2019-Jun-12 16:30N 33°44' W 118°17'0 0.0
2019-Jun-12 16:00N 33°44' W 118°17'0 0.0
2019-Jun-12 15:26N 33°44' W 118°17'0 0.0
2019-Jun-12 14:54N 33°44' W 118°17'0 0.0
2019-Jun-12 14:21N 33°44' W 118°17'0 0.0
2019-Jun-12 13:58N 33°44' W 118°17'0 0.0
2019-Jun-12 13:28N 33°44' W 118°17'0 0.0
2019-Jun-12 12:55N 33°44' W 118°17'0 0.0
2019-Jun-12 12:30N 33°44' W 118°17'0 0.0
2019-Jun-12 11:56N 33°44' W 118°17'0 0.0
2019-Jun-12 11:29N 33°44' W 118°17'0 0.0
2019-Jun-12 10:53N 33°44' W 118°17'0 0.0
2019-Jun-12 10:30N 33°44' W 118°17'0 0.0
2019-Jun-12 09:56N 33°44' W 118°17'0 0.0
2019-Jun-12 09:28N 33°44' W 118°17'0 0.0
2019-Jun-12 09:00N 33°44' W 118°17'0 0.0
2019-Jun-12 08:29N 33°44' W 118°17'0 0.0
2019-Jun-12 07:57N 33°44' W 118°17'0 0.0
2019-Jun-12 07:23N 33°44' W 118°17'0 0.0
2019-Jun-12 06:56N 33°44' W 118°17'0 0.0
2019-Jun-12 06:30N 33°44' W 118°17'0 0.0
2019-Jun-12 05:56N 33°44' W 118°17'0 0.0
2019-Jun-12 05:27N 33°44' W 118°17'0 0.0
2019-Jun-12 04:58N 33°44' W 118°17'0 0.0
2019-Jun-12 04:30N 33°44' W 118°17'0 0.0
2019-Jun-12 03:58N 33°44' W 118°17'0 0.0
2019-Jun-12 03:28N 33°44' W 118°17'0 0.0
2019-Jun-12 02:59N 33°44' W 118°17'0 0.0
2019-Jun-12 01:58N 33°44' W 118°17'0 0.0
2019-Jun-12 01:26N 33°44' W 118°17'0 0.0
2019-Jun-12 00:59N 33°44' W 118°17'0 0.0
2019-Jun-12 00:29N 33°44' W 118°17'0 0.0
2019-Jun-11 23:57N 33°44' W 118°17'0 0.0
2019-Jun-11 23:25N 33°44' W 118°17'0 0.0
2019-Jun-11 23:00N 33°44' W 118°17'0 0.0
2019-Jun-11 22:27N 33°44' W 118°17'0 0.0
2019-Jun-11 21:58N 33°44' W 118°17'0 0.0
2019-Jun-11 21:23N 33°44' W 118°17'0 0.0
2019-Jun-11 20:57N 33°44' W 118°17'0 0.0
2019-Jun-11 20:28N 33°44' W 118°17'0 0.0
2019-Jun-11 19:59N 33°44' W 118°17'0 0.0
2019-Jun-11 19:27N 33°44' W 118°17'0 0.0
2019-Jun-11 18:59N 33°44' W 118°17'0 0.0
2019-Jun-11 18:30N 33°44' W 118°17'2 4.0
2019-Jun-11 18:00N 33°42' W 118°15'1 2.9
2019-Jun-11 17:30N 33°41' W 118°16'1 2.6
2019-Jun-11 17:00N 33°42' W 118°15'1 2.0
2019-Jun-11 16:30N 33°43' W 118°16'1 2.1
2019-Jun-11 15:59N 33°44' W 118°17'0 0.0
2019-Jun-11 15:25N 33°44' W 118°17'0 0.0
2019-Jun-11 15:00N 33°44' W 118°17'0 0.0
2019-Jun-11 14:27N 33°44' W 118°17'0 0.0
2019-Jun-11 13:58N 33°44' W 118°17'0 0.0
2019-Jun-11 13:24N 33°44' W 118°17'0 0.0
2019-Jun-11 13:00N 33°44' W 118°17'0 0.0
2019-Jun-11 12:29N 33°44' W 118°17'0 0.0
2019-Jun-11 11:59N 33°44' W 118°17'0 0.0
2019-Jun-11 11:30N 33°44' W 118°17'0 0.0
2019-Jun-11 10:59N 33°44' W 118°17'0 0.0
2019-Jun-11 10:26N 33°44' W 118°17'0 0.0
2019-Jun-11 09:59N 33°44' W 118°17'0 0.0
2019-Jun-11 09:30N 33°44' W 118°17'0 0.0
2019-Jun-11 09:00N 33°44' W 118°17'0 0.0
2019-Jun-11 08:30N 33°44' W 118°17'0 0.0
2019-Jun-11 07:59N 33°44' W 118°17'0 0.0
2019-Jun-11 07:25N 33°44' W 118°17'0 0.0
2019-Jun-11 06:55N 33°44' W 118°17'0 0.0
2019-Jun-11 06:27N 33°44' W 118°17'0 0.0
2019-Jun-11 05:55N 33°44' W 118°17'0 0.0
2019-Jun-11 05:29N 33°44' W 118°17'0 0.0
2019-Jun-11 05:00N 33°44' W 118°17'0 0.0
2019-Jun-11 04:28N 33°44' W 118°17'0 0.0
2019-Jun-11 03:58N 33°44' W 118°17'0 0.0
2019-Jun-11 03:26N 33°44' W 118°17'0 0.0
2019-Jun-11 02:57N 33°44' W 118°17'0 0.0
2019-Jun-11 02:30N 33°44' W 118°17'0 0.0
2019-Jun-11 01:58N 33°44' W 118°17'0 0.0
2019-Jun-11 01:29N 33°44' W 118°17'0 0.0
2019-Jun-11 01:00N 33°44' W 118°17'0 0.0
2019-Jun-11 00:28N 33°44' W 118°17'0 0.0
2019-Jun-11 00:00N 33°44' W 118°17'0 0.0
2019-Jun-10 23:28N 33°44' W 118°17'0 0.0
2019-Jun-10 22:59N 33°44' W 118°17'0 0.0
2019-Jun-10 22:30N 33°44' W 118°17'0 0.0
2019-Jun-10 21:58N 33°44' W 118°17'0 0.0
2019-Jun-10 21:30N 33°44' W 118°17'0 0.0
2019-Jun-10 20:51N 33°44' W 118°17'0 0.0
2019-Jun-10 20:29N 33°44' W 118°17'0 0.0
2019-Jun-10 19:54N 33°44' W 118°17'0 0.0
2019-Jun-10 19:17N 33°44' W 118°17'0 0.0
2019-Jun-10 18:58N 33°44' W 118°17'0 0.0
2019-Jun-10 18:28N 33°44' W 118°17'0 0.0
2019-Jun-10 17:54N 33°44' W 118°17'0 0.0
2019-Jun-10 17:30N 33°44' W 118°17'0 0.0
2019-Jun-10 17:00N 33°44' W 118°17'0 0.0
2019-Jun-10 16:30N 33°44' W 118°17'0 0.0
2019-Jun-10 15:50N 33°44' W 118°17'0 0.0
2019-Jun-10 15:24N 33°44' W 118°17'0 0.0
2019-Jun-10 14:58N 33°44' W 118°17'0 0.0
2019-Jun-10 14:28N 33°44' W 118°17'0 0.0
2019-Jun-10 14:00N 33°44' W 118°17'0 0.0
2019-Jun-10 13:30N 33°44' W 118°17'0 0.0
2019-Jun-10 13:00N 33°44' W 118°17'0 0.0
2019-Jun-10 12:28N 33°44' W 118°17'0 0.0
2019-Jun-10 11:58N 33°44' W 118°17'0 0.0
2019-Jun-10 11:30N 33°44' W 118°17'0 0.0
2019-Jun-10 10:54N 33°44' W 118°17'0 0.0
2019-Jun-10 10:29N 33°44' W 118°17'0 0.0
2019-Jun-10 09:57N 33°44' W 118°17'0 0.0
2019-Jun-10 09:28N 33°44' W 118°17'0 0.0
2019-Jun-10 08:59N 33°44' W 118°17'0 0.0
2019-Jun-10 08:28N 33°44' W 118°17'0 0.0
2019-Jun-10 07:59N 33°44' W 118°17'0 0.0
2019-Jun-10 07:26N 33°44' W 118°17'0 0.0
2019-Jun-10 06:58N 33°44' W 118°17'0 0.0
2019-Jun-10 06:27N 33°44' W 118°17'0 0.0
2019-Jun-10 05:56N 33°44' W 118°17'0 0.0
2019-Jun-10 05:25N 33°44' W 118°17'0 0.0
2019-Jun-10 04:58N 33°44' W 118°17'0 0.0
2019-Jun-10 04:28N 33°44' W 118°17'0 0.0
2019-Jun-10 03:58N 33°44' W 118°17'0 0.0
2019-Jun-10 03:28N 33°44' W 118°17'0 0.0
2019-Jun-10 03:00N 33°44' W 118°17'0 0.0
2019-Jun-10 02:30N 33°44' W 118°17'0 0.0
2019-Jun-10 01:57N 33°44' W 118°17'0 0.0
2019-Jun-10 01:28N 33°44' W 118°17'0 0.0
2019-Jun-10 00:58N 33°44' W 118°17'0 0.0
2019-Jun-10 00:27N 33°44' W 118°17'0 0.0
2019-Jun-09 23:58N 33°44' W 118°17'0 0.0
2019-Jun-09 23:25N 33°44' W 118°17'0 0.0
2019-Jun-09 22:58N 33°44' W 118°17'0 0.0
2019-Jun-09 22:30N 33°44' W 118°17'0 0.0
2019-Jun-09 21:57N 33°44' W 118°17'0 0.0
2019-Jun-09 21:25N 33°44' W 118°17'0 0.0
2019-Jun-09 20:57N 33°44' W 118°17'0 0.0
2019-Jun-09 20:30N 33°44' W 118°17'0 0.0
2019-Jun-09 19:59N 33°44' W 118°17'0 0.0
2019-Jun-09 19:23N 33°44' W 118°17'0 0.0
2019-Jun-09 18:53N 33°44' W 118°17'0 0.0
2019-Jun-09 18:30N 33°44' W 118°17'0 0.0
2019-Jun-09 17:58N 33°44' W 118°17'0 0.0
2019-Jun-09 17:23N 33°44' W 118°17'0 0.0
2019-Jun-09 16:57N 33°44' W 118°17'0 0.0
2019-Jun-09 16:30N 33°44' W 118°17'0 0.0
2019-Jun-09 15:53N 33°44' W 118°17'0 0.0
2019-Jun-09 15:27N 33°44' W 118°17'0 0.0
2019-Jun-09 14:57N 33°44' W 118°17'0 0.0
2019-Jun-09 14:28N 33°44' W 118°17'0 0.0
2019-Jun-09 13:49N 33°44' W 118°17'0 0.0
2019-Jun-09 13:25N 33°44' W 118°17'0 0.0
2019-Jun-09 12:59N 33°44' W 118°17'0 0.0
2019-Jun-09 12:28N 33°44' W 118°17'0 0.0
2019-Jun-09 11:47N 33°44' W 118°17'0 0.0
2019-Jun-09 11:21N 33°44' W 118°17'0 0.0
2019-Jun-09 10:54N 33°44' W 118°17'0 0.0
2019-Jun-09 10:28N 33°44' W 118°17'0 0.0
2019-Jun-09 09:57N 33°44' W 118°17'0 0.0
2019-Jun-09 09:25N 33°44' W 118°17'0 0.0
2019-Jun-09 08:53N 33°44' W 118°17'0 0.0
2019-Jun-09 08:14N 33°44' W 118°17'0 0.0
2019-Jun-09 07:39N 33°44' W 118°17'0 0.0
2019-Jun-09 07:27N 33°44' W 118°17'0 0.0
2019-Jun-09 06:56N 33°44' W 118°17'0 0.0
2019-Jun-09 06:29N 33°44' W 118°17'0 0.0
2019-Jun-09 05:59N 33°44' W 118°17'0 0.0
2019-Jun-09 05:26N 33°44' W 118°17'0 0.0
2019-Jun-09 04:52N 33°44' W 118°17'0 0.0
2019-Jun-09 03:58N 33°44' W 118°17'0 0.0
2019-Jun-09 03:26N 33°44' W 118°17'0 0.0
2019-Jun-09 03:01N 33°44' W 118°17'0 0.0
2019-Jun-09 02:30N 33°44' W 118°17'0 0.0
2019-Jun-09 01:57N 33°44' W 118°17'0 0.0
2019-Jun-09 01:30N 33°44' W 118°17'0 0.0
2019-Jun-09 00:58N 33°44' W 118°17'0 0.0
2019-Jun-09 00:28N 33°44' W 118°17'0 0.0
2019-Jun-08 23:58N 33°44' W 118°17'0 0.0
2019-Jun-08 23:30N 33°44' W 118°17'0 0.0
2019-Jun-08 23:00N 33°44' W 118°17'0 0.0
2019-Jun-08 22:30N 33°44' W 118°17'0 0.0
2019-Jun-08 22:01N 33°44' W 118°17'0 0.0
2019-Jun-08 21:29N 33°44' W 118°17'0 0.0
2019-Jun-08 20:59N 33°44' W 118°17'0 0.0
2019-Jun-08 20:30N 33°44' W 118°17'0 0.0
2019-Jun-08 20:00N 33°44' W 118°17'1 2.1
2019-Jun-08 19:30N 33°43' W 118°16'2 4.1
2019-Jun-08 19:00N 33°42' W 118°14'1 1.9
2019-Jun-08 18:30N 33°42' W 118°15'2 3.8
2019-Jun-08 18:00N 33°44' W 118°16'0 0.5
2019-Jun-08 17:29N 33°44' W 118°17'0 0.0
2019-Jun-08 17:00N 33°44' W 118°17'0 0.0
2019-Jun-08 16:27N 33°44' W 118°17'0 0.0
2019-Jun-08 15:50N 33°44' W 118°17'0 0.0
2019-Jun-08 15:27N 33°44' W 118°17'0 0.0
2019-Jun-08 15:00N 33°44' W 118°17'0 0.0
2019-Jun-08 14:29N 33°44' W 118°17'0 0.0
2019-Jun-08 13:52N 33°44' W 118°17'0 0.0
2019-Jun-08 13:29N 33°44' W 118°17'0 0.0
2019-Jun-08 12:44N 33°44' W 118°17'0 0.0
2019-Jun-08 12:30N 33°44' W 118°17'0 0.0
2019-Jun-08 11:55N 33°44' W 118°17'0 0.0
2019-Jun-08 11:26N 33°44' W 118°17'0 0.0
2019-Jun-08 11:01N 33°44' W 118°17'0 0.0
2019-Jun-08 10:21N 33°44' W 118°17'0 0.0
2019-Jun-08 09:33N 33°44' W 118°17'0 0.0
2019-Jun-08 08:56N 33°44' W 118°17'0 0.0
2019-Jun-08 08:27N 33°44' W 118°17'0 0.0
2019-Jun-08 07:48N 33°44' W 118°17'0 0.0
2019-Jun-08 07:24N 33°44' W 118°17'0 0.0
2019-Jun-08 06:59N 33°44' W 118°17'0 0.0
2019-Jun-08 06:06N 33°44' W 118°17'0 0.0
2019-Jun-08 05:58N 33°44' W 118°17'0 0.0
2019-Jun-08 05:07N 33°44' W 118°17'0 0.0
2019-Jun-08 04:54N 33°44' W 118°17'0 0.0
2019-Jun-08 04:16N 33°44' W 118°17'0 0.0
2019-Jun-08 03:57N 33°44' W 118°17'0 0.0
2019-Jun-08 03:24N 33°44' W 118°17'0 0.0
2019-Jun-08 02:52N 33°44' W 118°17'0 0.0
2019-Jun-08 02:26N 33°44' W 118°17'0 0.0
2019-Jun-08 01:58N 33°44' W 118°17'0 0.0
2019-Jun-08 01:25N 33°44' W 118°17'0 0.0
2019-Jun-08 00:59N 33°44' W 118°17'0 0.0
2019-Jun-08 00:29N 33°44' W 118°17'0 0.0
2019-Jun-08 00:00N 33°44' W 118°17'0 0.0
2019-Jun-07 23:23N 33°44' W 118°17'0 0.0
2019-Jun-07 22:44N 33°44' W 118°17'0 0.0
2019-Jun-07 22:21N 33°44' W 118°17'0 0.0
2019-Jun-07 22:00N 33°44' W 118°17'0 0.0
2019-Jun-07 21:30N 33°44' W 118°17'0 0.0
2019-Jun-07 20:59N 33°44' W 118°17'0 0.0
2019-Jun-07 20:27N 33°44' W 118°17'0 0.0
2019-Jun-07 20:01N 33°44' W 118°17'0 0.0
2019-Jun-07 19:24N 33°44' W 118°17'0 0.0
2019-Jun-07 18:56N 33°44' W 118°17'0 0.0
2019-Jun-07 18:29N 33°44' W 118°17'0 0.0
2019-Jun-07 17:58N 33°44' W 118°17'0 0.0
2019-Jun-07 17:30N 33°44' W 118°17'0 0.0
2019-Jun-07 17:01N 33°44' W 118°17'0 0.0
2019-Jun-07 16:30N 33°44' W 118°17'0 0.0
2019-Jun-07 15:56N 33°44' W 118°17'0 0.0
2019-Jun-07 15:19N 33°44' W 118°17'0 0.0
2019-Jun-07 14:59N 33°44' W 118°17'0 0.0
2019-Jun-07 14:21N 33°44' W 118°17'0 0.0
2019-Jun-07 14:00N 33°44' W 118°17'0 0.0
2019-Jun-07 13:30N 33°44' W 118°17'0 0.0
2019-Jun-07 12:59N 33°44' W 118°17'0 0.0
2019-Jun-07 12:25N 33°44' W 118°17'0 0.0
2019-Jun-07 11:45N 33°44' W 118°17'0 0.0
2019-Jun-07 11:30N 33°44' W 118°17'0 0.0
2019-Jun-07 10:51N 33°44' W 118°17'0 0.0
2019-Jun-07 10:27N 33°44' W 118°17'0 0.0
2019-Jun-07 09:47N 33°44' W 118°17'0 0.0
2019-Jun-07 09:18N 33°44' W 118°17'0 0.0
2019-Jun-07 09:00N 33°44' W 118°17'0 0.0
2019-Jun-07 08:30N 33°44' W 118°17'0 0.0
2019-Jun-07 08:01N 33°44' W 118°17'0 0.0
2019-Jun-07 07:23N 33°44' W 118°17'0 0.0
2019-Jun-07 06:40N 33°44' W 118°17'0 0.0
2019-Jun-07 06:23N 33°44' W 118°17'0 0.0
2019-Jun-07 05:49N 33°44' W 118°17'0 0.0
2019-Jun-07 05:29N 33°44' W 118°17'0 0.0
2019-Jun-07 04:52N 33°44' W 118°17'0 0.0
2019-Jun-07 04:27N 33°44' W 118°17'0 0.0
2019-Jun-07 04:00N 33°44' W 118°17'0 0.0
2019-Jun-07 03:06N 33°44' W 118°17'0 0.0
2019-Jun-07 02:55N 33°44' W 118°17'0 0.0
2019-Jun-07 02:22N 33°44' W 118°17'0 0.0
2019-Jun-07 01:55N 33°44' W 118°17'0 0.0
2019-Jun-07 01:25N 33°44' W 118°17'0 0.0
2019-Jun-07 00:59N 33°44' W 118°17'0 0.0
2019-Jun-07 00:26N 33°44' W 118°17'0 0.0
2019-Jun-06 23:59N 33°44' W 118°17'0 0.0
2019-Jun-06 23:28N 33°44' W 118°17'0 0.0
2019-Jun-06 22:59N 33°44' W 118°17'0 0.0
2019-Jun-06 22:26N 33°44' W 118°17'0 0.0
2019-Jun-06 21:57N 33°44' W 118°17'0 0.0
2019-Jun-06 21:25N 33°44' W 118°17'0 0.0
2019-Jun-06 21:00N 33°44' W 118°17'0 0.0
2019-Jun-06 20:30N 33°44' W 118°17'0 0.0
2019-Jun-06 19:51N 33°44' W 118°17'0 0.0
2019-Jun-06 19:29N 33°44' W 118°17'0 0.0
2019-Jun-06 18:59N 33°44' W 118°17'0 0.0
2019-Jun-06 18:25N 33°44' W 118°17'0 0.0
2019-Jun-06 17:56N 33°44' W 118°17'0 0.0
2019-Jun-06 17:30N 33°44' W 118°17'0 0.0
2019-Jun-06 17:00N 33°44' W 118°17'0 0.0
2019-Jun-06 16:29N 33°44' W 118°17'0 0.0
2019-Jun-06 15:57N 33°44' W 118°17'0 0.0
2019-Jun-06 15:29N 33°44' W 118°17'0 0.0
2019-Jun-06 15:00N 33°44' W 118°17'0 0.0
2019-Jun-06 14:28N 33°44' W 118°17'0 0.0
2019-Jun-06 13:58N 33°44' W 118°17'0 0.0
2019-Jun-06 13:27N 33°44' W 118°17'0 0.0
2019-Jun-06 12:58N 33°44' W 118°17'0 0.0
2019-Jun-06 12:29N 33°44' W 118°17'0 0.0
2019-Jun-06 12:00N 33°44' W 118°17'0 0.0
2019-Jun-06 11:11N 33°44' W 118°17'0 0.0
2019-Jun-06 10:56N 33°44' W 118°17'0 0.0
2019-Jun-06 10:21N 33°44' W 118°17'0 0.0
2019-Jun-06 09:55N 33°44' W 118°17'0 0.0
2019-Jun-06 09:24N 33°44' W 118°17'0 0.0
2019-Jun-06 08:56N 33°44' W 118°17'0 0.0
2019-Jun-06 08:21N 33°44' W 118°17'0 0.0
2019-Jun-06 07:53N 33°44' W 118°17'0 0.0
2019-Jun-06 07:24N 33°44' W 118°17'0 0.0
2019-Jun-06 06:58N 33°44' W 118°17'0 0.0
2019-Jun-06 06:28N 33°44' W 118°17'0 0.0
2019-Jun-06 05:59N 33°44' W 118°17'0 0.0
2019-Jun-06 05:30N 33°44' W 118°17'0 0.0
2019-Jun-06 04:59N 33°44' W 118°17'0 0.0
2019-Jun-06 04:22N 33°44' W 118°17'0 0.0
2019-Jun-06 03:55N 33°44' W 118°17'0 0.0
2019-Jun-06 03:29N 33°44' W 118°17'0 0.0
2019-Jun-06 02:58N 33°44' W 118°17'0 0.0
2019-Jun-06 02:21N 33°44' W 118°17'0 0.0
2019-Jun-06 01:58N 33°44' W 118°17'0 0.0
2019-Jun-06 01:25N 33°44' W 118°17'  
Track history (hours):
 
Tides and Currents Weather Stations Pressure Air Temp Water Temp Dewpoint Dewpoint Depression Visibility Wind Speed Wind Dir Waves Ship Positions

Exy Johnson (United States)

Ship's website: http://www.lamitopsail.org/index.asp

Owner: Los Angeles Maritime Institute, San Pedro, CA. More information available from US FCC via Universal Licensing System and Coast Guard Vessel Documentation Center.

Last reported at 2019-Jun-16 01:00 UTC. Time now 2019-Jun-16 01:24 UTC.
Position N 33°43' W 118°16'.

Length 34 m; draft 3.7 m.

Type: Sailing vessel. MMSI: 366883970.

Date/timePositionNaut miles runAvg speedWind from/ knotsBaromVisibWave heightAir tempDewpointWater temp
2019-Jun-16 01:00N 33°43' W 118°16'2 3.3
2019-Jun-16 00:30N 33°44' W 118°17'0 0.8
2019-Jun-16 00:00N 33°44' W 118°17'0 0.0
2019-Jun-15 23:30N 33°44' W 118°17'0 0.0
2019-Jun-15 23:00N 33°44' W 118°17'1 1.9
2019-Jun-15 22:30N 33°43' W 118°16'3 5.6
2019-Jun-15 22:00N 33°44' W 118°13'1 1.6
2019-Jun-15 21:30N 33°43' W 118°14'1 1.0
2019-Jun-15 21:00N 33°43' W 118°13'3 5.2
2019-Jun-15 20:29N 33°43' W 118°16'1 1.6
2019-Jun-15 19:59N 33°44' W 118°17'0 0.0
2019-Jun-15 19:24N 33°44' W 118°17'0 0.0
2019-Jun-15 18:58N 33°44' W 118°17'0 0.0
2019-Jun-15 18:30N 33°44' W 118°17'0 0.0
2019-Jun-15 17:58N 33°44' W 118°17'0 0.0
2019-Jun-15 17:29N 33°44' W 118°17'0 0.0
2019-Jun-15 17:00N 33°44' W 118°17'0 0.0
2019-Jun-15 16:29N 33°44' W 118°17'0 0.0
2019-Jun-15 15:59N 33°44' W 118°17'0 0.0
2019-Jun-15 15:26N 33°44' W 118°17'0 0.0
2019-Jun-15 14:43N 33°44' W 118°17'0 0.0
2019-Jun-15 14:28N 33°44' W 118°17'0 0.0
2019-Jun-15 13:55N 33°44' W 118°17'0 0.0
2019-Jun-15 13:24N 33°44' W 118°17'0 0.0
2019-Jun-15 12:45N 33°44' W 118°17'0 0.0
2019-Jun-15 12:18N 33°44' W 118°17'0 0.0
2019-Jun-15 11:54N 33°44' W 118°17'0 0.0
2019-Jun-15 11:24N 33°44' W 118°17'0 0.0
2019-Jun-15 10:35N 33°44' W 118°17'0 0.0
2019-Jun-15 10:11N 33°44' W 118°17'0 0.0
2019-Jun-15 09:56N 33°44' W 118°17'0 0.0
2019-Jun-15 09:15N 33°44' W 118°17'0 0.0
2019-Jun-15 09:00N 33°44' W 118°17'0 0.0
2019-Jun-15 08:11N 33°44' W 118°17'0 0.0
2019-Jun-15 07:52N 33°44' W 118°17'0 0.0
2019-Jun-15 07:06N 33°44' W 118°17'0 0.0
2019-Jun-15 06:51N 33°44' W 118°17'0 0.0
2019-Jun-15 06:29N 33°44' W 118°17'0 0.0
2019-Jun-15 05:58N 33°44' W 118°17'0 0.0
2019-Jun-15 05:21N 33°44' W 118°17'0 0.0
2019-Jun-15 04:48N 33°44' W 118°17'0 0.0
2019-Jun-15 04:22N 33°44' W 118°17'0 0.0
2019-Jun-15 03:40N 33°44' W 118°17'0 0.0
2019-Jun-15 03:29N 33°44' W 118°17'0 0.0
2019-Jun-15 03:00N 33°44' W 118°17'0 0.0
2019-Jun-15 02:26N 33°44' W 118°17'0 0.0
2019-Jun-15 01:57N 33°44' W 118°17'0 0.0
2019-Jun-15 01:26N 33°44' W 118°17'0 0.0
2019-Jun-15 00:59N 33°44' W 118°17'0 0.0
2019-Jun-15 00:21N 33°44' W 118°17'0 0.0
2019-Jun-14 23:59N 33°44' W 118°17'0 0.0
2019-Jun-14 23:26N 33°44' W 118°17'1 1.4
2019-Jun-14 22:57N 33°43' W 118°16'2 4.1
2019-Jun-14 22:30N 33°43' W 118°14'1 1.6
2019-Jun-14 22:00N 33°43' W 118°15'2 2.8
2019-Jun-14 21:26N 33°44' W 118°16'0 0.9
2019-Jun-14 20:58N 33°44' W 118°17'0 0.0
2019-Jun-14 20:28N 33°44' W 118°17'0 0.0
2019-Jun-14 20:00N 33°44' W 118°17'0 0.0
2019-Jun-14 19:29N 33°44' W 118°17'0 0.0
2019-Jun-14 18:59N 33°44' W 118°17'0 0.0
2019-Jun-14 18:26N 33°44' W 118°17'0 0.0
2019-Jun-14 17:47N 33°44' W 118°17'0 0.0
2019-Jun-14 17:23N 33°44' W 118°17'0 0.0
2019-Jun-14 16:58N 33°44' W 118°17'0 0.0
2019-Jun-14 16:28N 33°44' W 118°17'0 0.0
2019-Jun-14 15:58N 33°44' W 118°17'0 0.0
2019-Jun-14 15:28N 33°44' W 118°17'0 0.0
2019-Jun-14 14:54N 33°44' W 118°17'0 0.0
2019-Jun-14 14:30N 33°44' W 118°17'0 0.0
2019-Jun-14 14:00N 33°44' W 118°17'0 0.0
2019-Jun-14 13:30N 33°44' W 118°17'0 0.0
2019-Jun-14 12:54N 33°44' W 118°17'0 0.0
2019-Jun-14 12:30N 33°44' W 118°17'0 0.0
2019-Jun-14 11:55N 33°44' W 118°17'0 0.0
2019-Jun-14 11:25N 33°44' W 118°17'0 0.0
2019-Jun-14 11:00N 33°44' W 118°17'0 0.0
2019-Jun-14 10:30N 33°44' W 118°17'0 0.0
2019-Jun-14 09:56N 33°44' W 118°17'0 0.0
2019-Jun-14 09:04N 33°44' W 118°17'0 0.0
2019-Jun-14 08:55N 33°44' W 118°17'0 0.0
2019-Jun-14 08:27N 33°44' W 118°17'0 0.0
2019-Jun-14 07:50N 33°44' W 118°17'0 0.0
2019-Jun-14 07:19N 33°44' W 118°17'0 0.0
2019-Jun-14 06:44N 33°44' W 118°17'0 0.0
2019-Jun-14 06:29N 33°44' W 118°17'0 0.0
2019-Jun-14 05:56N 33°44' W 118°17'0 0.0
2019-Jun-14 05:03N 33°44' W 118°17'0 0.0
2019-Jun-14 04:54N 33°44' W 118°17'0 0.0
2019-Jun-14 04:27N 33°44' W 118°17'0 0.0
2019-Jun-14 03:57N 33°44' W 118°17'0 0.0
2019-Jun-14 03:30N 33°44' W 118°17'0 0.0
2019-Jun-14 02:58N 33°44' W 118°17'0 0.0
2019-Jun-14 02:28N 33°44' W 118°17'0 0.0
2019-Jun-14 01:56N 33°44' W 118°17'0 0.0
2019-Jun-14 01:26N 33°44' W 118°17'0 0.0
2019-Jun-14 00:56N 33°44' W 118°17'0 0.0
2019-Jun-14 00:30N 33°44' W 118°17'0 0.0
2019-Jun-13 23:56N 33°44' W 118°17'0 0.0
2019-Jun-13 23:24N 33°44' W 118°17'0 0.0
2019-Jun-13 23:00N 33°44' W 118°17'0 0.0
2019-Jun-13 22:28N 33°44' W 118°17'0 0.0
2019-Jun-13 21:58N 33°44' W 118°17'0 0.0
2019-Jun-13 21:21N 33°44' W 118°17'0 0.0
2019-Jun-13 20:55N 33°44' W 118°17'0 0.0
2019-Jun-13 20:28N 33°44' W 118°17'0 0.0
2019-Jun-13 19:56N 33°44' W 118°17'0 0.0
2019-Jun-13 19:28N 33°44' W 118°17'0 0.0
2019-Jun-13 18:57N 33°44' W 118°17'0 0.0
2019-Jun-13 18:25N 33°44' W 118°17'0 0.0
2019-Jun-13 17:55N 33°44' W 118°17'0 0.0
2019-Jun-13 17:26N 33°44' W 118°17'0 0.0
2019-Jun-13 16:58N 33°44' W 118°17'0 0.0
2019-Jun-13 16:28N 33°44' W 118°17'0 0.0
2019-Jun-13 15:57N 33°44' W 118°17'0 0.0
2019-Jun-13 15:25N 33°44' W 118°17'0 0.0
2019-Jun-13 14:59N 33°44' W 118°17'0 0.0
2019-Jun-13 14:28N 33°44' W 118°17'0 0.0
2019-Jun-13 13:58N 33°44' W 118°17'0 0.0
2019-Jun-13 13:26N 33°44' W 118°17'0 0.0
2019-Jun-13 12:41N 33°44' W 118°17'0 0.0
2019-Jun-13 12:29N 33°44' W 118°17'0 0.0
2019-Jun-13 11:58N 33°44' W 118°17'0 0.0
2019-Jun-13 11:24N 33°44' W 118°17'0 0.0
2019-Jun-13 10:55N 33°44' W 118°17'0 0.0
2019-Jun-13 10:29N 33°44' W 118°17'0 0.0
2019-Jun-13 09:58N 33°44' W 118°17'0 0.0
2019-Jun-13 09:26N 33°44' W 118°17'0 0.0
2019-Jun-13 08:44N 33°44' W 118°17'0 0.0
2019-Jun-13 08:29N 33°44' W 118°17'0 0.0
2019-Jun-13 07:58N 33°44' W 118°17'0 0.0
2019-Jun-13 07:28N 33°44' W 118°17'0 0.0
2019-Jun-13 06:53N 33°44' W 118°17'0 0.0
2019-Jun-13 06:27N 33°44' W 118°17'0 0.0
2019-Jun-13 05:55N 33°44' W 118°17'0 0.0
2019-Jun-13 05:26N 33°44' W 118°17'0 0.0
2019-Jun-13 05:00N 33°44' W 118°17'0 0.0
2019-Jun-13 04:27N 33°44' W 118°17'0 0.0
2019-Jun-13 04:00N 33°44' W 118°17'0 0.0
2019-Jun-13 03:25N 33°44' W 118°17'0 0.0
2019-Jun-13 02:54N 33°44' W 118°17'0 0.0
2019-Jun-13 02:27N 33°44' W 118°17'0 0.0
2019-Jun-13 01:56N 33°44' W 118°17'0 0.0
2019-Jun-13 01:28N 33°44' W 118°17'0 0.0
2019-Jun-13 01:00N 33°44' W 118°17'0 0.0
2019-Jun-13 00:28N 33°44' W 118°17'0 0.0
2019-Jun-13 00:00N 33°44' W 118°17'0 0.0
2019-Jun-12 23:28N 33°44' W 118°17'0 0.0
2019-Jun-12 23:00N 33°44' W 118°17'0 0.0
2019-Jun-12 22:28N 33°44' W 118°17'0 0.0
2019-Jun-12 21:59N 33°44' W 118°17'0 0.0
2019-Jun-12 21:27N 33°44' W 118°17'0 0.0
2019-Jun-12 21:00N 33°44' W 118°17'0 0.0
2019-Jun-12 20:27N 33°44' W 118°17'0 0.0
2019-Jun-12 19:56N 33°44' W 118°17'0 0.0
2019-Jun-12 19:25N 33°44' W 118°17'0 0.0
2019-Jun-12 19:00N 33°44' W 118°17'0 0.0
2019-Jun-12 18:30N 33°44' W 118°17'0 0.0
2019-Jun-12 17:58N 33°44' W 118°17'0 0.0
2019-Jun-12 17:24N 33°44' W 118°17'0 0.0
2019-Jun-12 16:59N 33°44' W 118°17'0 0.0
2019-Jun-12 16:30N 33°44' W 118°17'0 0.0
2019-Jun-12 16:00N 33°44' W 118°17'0 0.0
2019-Jun-12 15:26N 33°44' W 118°17'0 0.0
2019-Jun-12 14:54N 33°44' W 118°17'0 0.0
2019-Jun-12 14:21N 33°44' W 118°17'0 0.0
2019-Jun-12 13:58N 33°44' W 118°17'0 0.0
2019-Jun-12 13:28N 33°44' W 118°17'0 0.0
2019-Jun-12 12:55N 33°44' W 118°17'0 0.0
2019-Jun-12 12:30N 33°44' W 118°17'0 0.0
2019-Jun-12 11:56N 33°44' W 118°17'0 0.0
2019-Jun-12 11:29N 33°44' W 118°17'0 0.0
2019-Jun-12 10:53N 33°44' W 118°17'0 0.0
2019-Jun-12 10:30N 33°44' W 118°17'0 0.0
2019-Jun-12 09:56N 33°44' W 118°17'0 0.0
2019-Jun-12 09:28N 33°44' W 118°17'0 0.0
2019-Jun-12 09:00N 33°44' W 118°17'0 0.0
2019-Jun-12 08:29N 33°44' W 118°17'0 0.0
2019-Jun-12 07:57N 33°44' W 118°17'0 0.0
2019-Jun-12 07:23N 33°44' W 118°17'0 0.0
2019-Jun-12 06:56N 33°44' W 118°17'0 0.0
2019-Jun-12 06:30N 33°44' W 118°17'0 0.0
2019-Jun-12 05:56N 33°44' W 118°17'0 0.0
2019-Jun-12 05:27N 33°44' W 118°17'0 0.0
2019-Jun-12 04:58N 33°44' W 118°17'0 0.0
2019-Jun-12 04:30N 33°44' W 118°17'0 0.0
2019-Jun-12 03:58N 33°44' W 118°17'0 0.0
2019-Jun-12 03:28N 33°44' W 118°17'0 0.0
2019-Jun-12 02:59N 33°44' W 118°17'0 0.0
2019-Jun-12 01:58N 33°44' W 118°17'0 0.0
2019-Jun-12 01:26N 33°44' W 118°17'0 0.0
2019-Jun-12 00:59N 33°44' W 118°17'0 0.0
2019-Jun-12 00:29N 33°44' W 118°17'0 0.0
2019-Jun-11 23:57N 33°44' W 118°17'0 0.0
2019-Jun-11 23:25N 33°44' W 118°17'0 0.0
2019-Jun-11 23:00N 33°44' W 118°17'0 0.0
2019-Jun-11 22:27N 33°44' W 118°17'0 0.0
2019-Jun-11 21:58N 33°44' W 118°17'0 0.0
2019-Jun-11 21:23N 33°44' W 118°17'0 0.0
2019-Jun-11 20:57N 33°44' W 118°17'0 0.0
2019-Jun-11 20:28N 33°44' W 118°17'0 0.0
2019-Jun-11 19:59N 33°44' W 118°17'0 0.0
2019-Jun-11 19:27N 33°44' W 118°17'0 0.0
2019-Jun-11 18:59N 33°44' W 118°17'0 0.0
2019-Jun-11 18:30N 33°44' W 118°17'2 4.0
2019-Jun-11 18:00N 33°42' W 118°15'1 2.9
2019-Jun-11 17:30N 33°41' W 118°16'1 2.6
2019-Jun-11 17:00N 33°42' W 118°15'1 2.0
2019-Jun-11 16:30N 33°43' W 118°16'1 2.1
2019-Jun-11 15:59N 33°44' W 118°17'0 0.0
2019-Jun-11 15:25N 33°44' W 118°17'0 0.0
2019-Jun-11 15:00N 33°44' W 118°17'0 0.0
2019-Jun-11 14:27N 33°44' W 118°17'0 0.0
2019-Jun-11 13:58N 33°44' W 118°17'0 0.0
2019-Jun-11 13:24N 33°44' W 118°17'0 0.0
2019-Jun-11 13:00N 33°44' W 118°17'0 0.0
2019-Jun-11 12:29N 33°44' W 118°17'0 0.0
2019-Jun-11 11:59N 33°44' W 118°17'0 0.0
2019-Jun-11 11:30N 33°44' W 118°17'0 0.0
2019-Jun-11 10:59N 33°44' W 118°17'0 0.0
2019-Jun-11 10:26N 33°44' W 118°17'0 0.0
2019-Jun-11 09:59N 33°44' W 118°17'0 0.0
2019-Jun-11 09:30N 33°44' W 118°17'0 0.0
2019-Jun-11 09:00N 33°44' W 118°17'0 0.0
2019-Jun-11 08:30N 33°44' W 118°17'0 0.0
2019-Jun-11 07:59N 33°44' W 118°17'0 0.0
2019-Jun-11 07:25N 33°44' W 118°17'0 0.0
2019-Jun-11 06:55N 33°44' W 118°17'0 0.0
2019-Jun-11 06:27N 33°44' W 118°17'0 0.0
2019-Jun-11 05:55N 33°44' W 118°17'0 0.0
2019-Jun-11 05:29N 33°44' W 118°17'0 0.0
2019-Jun-11 05:00N 33°44' W 118°17'0 0.0
2019-Jun-11 04:28N 33°44' W 118°17'0 0.0
2019-Jun-11 03:58N 33°44' W 118°17'0 0.0
2019-Jun-11 03:26N 33°44' W 118°17'0 0.0
2019-Jun-11 02:57N 33°44' W 118°17'0 0.0
2019-Jun-11 02:30N 33°44' W 118°17'0 0.0
2019-Jun-11 01:58N 33°44' W 118°17'0 0.0
2019-Jun-11 01:29N 33°44' W 118°17'0 0.0
2019-Jun-11 01:00N 33°44' W 118°17'0 0.0
2019-Jun-11 00:28N 33°44' W 118°17'0 0.0
2019-Jun-11 00:00N 33°44' W 118°17'0 0.0
2019-Jun-10 23:28N 33°44' W 118°17'0 0.0
2019-Jun-10 22:59N 33°44' W 118°17'0 0.0
2019-Jun-10 22:30N 33°44' W 118°17'0 0.0
2019-Jun-10 21:58N 33°44' W 118°17'0 0.0
2019-Jun-10 21:30N 33°44' W 118°17'0 0.0
2019-Jun-10 20:51N 33°44' W 118°17'0 0.0
2019-Jun-10 20:29N 33°44' W 118°17'0 0.0
2019-Jun-10 19:54N 33°44' W 118°17'0 0.0
2019-Jun-10 19:17N 33°44' W 118°17'0 0.0
2019-Jun-10 18:58N 33°44' W 118°17'0 0.0
2019-Jun-10 18:28N 33°44' W 118°17'0 0.0
2019-Jun-10 17:54N 33°44' W 118°17'0 0.0
2019-Jun-10 17:30N 33°44' W 118°17'0 0.0
2019-Jun-10 17:00N 33°44' W 118°17'0 0.0
2019-Jun-10 16:30N 33°44' W 118°17'0 0.0
2019-Jun-10 15:50N 33°44' W 118°17'0 0.0
2019-Jun-10 15:24N 33°44' W 118°17'0 0.0
2019-Jun-10 14:58N 33°44' W 118°17'0 0.0
2019-Jun-10 14:28N 33°44' W 118°17'0 0.0
2019-Jun-10 14:00N 33°44' W 118°17'0 0.0
2019-Jun-10 13:30N 33°44' W 118°17'0 0.0
2019-Jun-10 13:00N 33°44' W 118°17'0 0.0
2019-Jun-10 12:28N 33°44' W 118°17'0 0.0
2019-Jun-10 11:58N 33°44' W 118°17'0 0.0
2019-Jun-10 11:30N 33°44' W 118°17'0 0.0
2019-Jun-10 10:54N 33°44' W 118°17'0 0.0
2019-Jun-10 10:29N 33°44' W 118°17'0 0.0
2019-Jun-10 09:57N 33°44' W 118°17'0 0.0
2019-Jun-10 09:28N 33°44' W 118°17'0 0.0
2019-Jun-10 08:59N 33°44' W 118°17'0 0.0
2019-Jun-10 08:28N 33°44' W 118°17'0 0.0
2019-Jun-10 07:59N 33°44' W 118°17'0 0.0
2019-Jun-10 07:26N 33°44' W 118°17'0 0.0
2019-Jun-10 06:58N 33°44' W 118°17'0 0.0
2019-Jun-10 06:27N 33°44' W 118°17'0 0.0
2019-Jun-10 05:56N 33°44' W 118°17'0 0.0
2019-Jun-10 05:25N 33°44' W 118°17'0 0.0
2019-Jun-10 04:58N 33°44' W 118°17'0 0.0
2019-Jun-10 04:28N 33°44' W 118°17'0 0.0
2019-Jun-10 03:58N 33°44' W 118°17'0 0.0
2019-Jun-10 03:28N 33°44' W 118°17'0 0.0
2019-Jun-10 03:00N 33°44' W 118°17'0 0.0
2019-Jun-10 02:30N 33°44' W 118°17'0 0.0
2019-Jun-10 01:57N 33°44' W 118°17'0 0.0
2019-Jun-10 01:28N 33°44' W 118°17'0 0.0
2019-Jun-10 00:58N 33°44' W 118°17'0 0.0
2019-Jun-10 00:27N 33°44' W 118°17'0 0.0
2019-Jun-09 23:58N 33°44' W 118°17'0 0.0
2019-Jun-09 23:25N 33°44' W 118°17'0 0.0
2019-Jun-09 22:58N 33°44' W 118°17'0 0.0
2019-Jun-09 22:30N 33°44' W 118°17'0 0.0
2019-Jun-09 21:57N 33°44' W 118°17'0 0.0
2019-Jun-09 21:25N 33°44' W 118°17'0 0.0
2019-Jun-09 20:57N 33°44' W 118°17'0 0.0
2019-Jun-09 20:30N 33°44' W 118°17'0 0.0
2019-Jun-09 19:59N 33°44' W 118°17'0 0.0
2019-Jun-09 19:23N 33°44' W 118°17'0 0.0
2019-Jun-09 18:53N 33°44' W 118°17'0 0.0
2019-Jun-09 18:30N 33°44' W 118°17'0 0.0
2019-Jun-09 17:58N 33°44' W 118°17'0 0.0
2019-Jun-09 17:23N 33°44' W 118°17'0 0.0
2019-Jun-09 16:57N 33°44' W 118°17'0 0.0
2019-Jun-09 16:30N 33°44' W 118°17'0 0.0
2019-Jun-09 15:53N 33°44' W 118°17'0 0.0
2019-Jun-09 15:27N 33°44' W 118°17'0 0.0
2019-Jun-09 14:57N 33°44' W 118°17'0 0.0
2019-Jun-09 14:28N 33°44' W 118°17'0 0.0
2019-Jun-09 13:49N 33°44' W 118°17'0 0.0
2019-Jun-09 13:25N 33°44' W 118°17'0 0.0
2019-Jun-09 12:59N 33°44' W 118°17'0 0.0
2019-Jun-09 12:28N 33°44' W 118°17'0 0.0
2019-Jun-09 11:47N 33°44' W 118°17'0 0.0
2019-Jun-09 11:21N 33°44' W 118°17'0 0.0
2019-Jun-09 10:54N 33°44' W 118°17'0 0.0
2019-Jun-09 10:28N 33°44' W 118°17'0 0.0
2019-Jun-09 09:57N 33°44' W 118°17'0 0.0
2019-Jun-09 09:25N 33°44' W 118°17'0 0.0
2019-Jun-09 08:53N 33°44' W 118°17'0 0.0
2019-Jun-09 08:14N 33°44' W 118°17'0 0.0
2019-Jun-09 07:39N 33°44' W 118°17'0 0.0
2019-Jun-09 07:27N 33°44' W 118°17'0 0.0
2019-Jun-09 06:56N 33°44' W 118°17'0 0.0
2019-Jun-09 06:29N 33°44' W 118°17'0 0.0
2019-Jun-09 05:59N 33°44' W 118°17'0 0.0
2019-Jun-09 05:26N 33°44' W 118°17'0 0.0
2019-Jun-09 04:52N 33°44' W 118°17'0 0.0
2019-Jun-09 03:58N 33°44' W 118°17'0 0.0
2019-Jun-09 03:26N 33°44' W 118°17'0 0.0
2019-Jun-09 03:01N 33°44' W 118°17'0 0.0
2019-Jun-09 02:30N 33°44' W 118°17'0 0.0
2019-Jun-09 01:57N 33°44' W 118°17'0 0.0
2019-Jun-09 01:30N 33°44' W 118°17'0 0.0
2019-Jun-09 00:58N 33°44' W 118°17'0 0.0
2019-Jun-09 00:28N 33°44' W 118°17'0 0.0
2019-Jun-08 23:58N 33°44' W 118°17'0 0.0
2019-Jun-08 23:30N 33°44' W 118°17'0 0.0
2019-Jun-08 23:00N 33°44' W 118°17'0 0.0
2019-Jun-08 22:30N 33°44' W 118°17'0 0.0
2019-Jun-08 22:01N 33°44' W 118°17'0 0.0
2019-Jun-08 21:29N 33°44' W 118°17'0 0.0
2019-Jun-08 20:59N 33°44' W 118°17'0 0.0
2019-Jun-08 20:30N 33°44' W 118°17'0 0.0
2019-Jun-08 20:00N 33°44' W 118°17'1 2.1
2019-Jun-08 19:30N 33°43' W 118°16'2 4.1
2019-Jun-08 19:00N 33°42' W 118°14'1 1.9
2019-Jun-08 18:30N 33°42' W 118°15'2 3.8
2019-Jun-08 18:00N 33°44' W 118°16'0 0.5
2019-Jun-08 17:29N 33°44' W 118°17'0 0.0
2019-Jun-08 17:00N 33°44' W 118°17'0 0.0
2019-Jun-08 16:27N 33°44' W 118°17'0 0.0
2019-Jun-08 15:50N 33°44' W 118°17'0 0.0
2019-Jun-08 15:27N 33°44' W 118°17'0 0.0
2019-Jun-08 15:00N 33°44' W 118°17'0 0.0
2019-Jun-08 14:29N 33°44' W 118°17'0 0.0
2019-Jun-08 13:52N 33°44' W 118°17'0 0.0
2019-Jun-08 13:29N 33°44' W 118°17'0 0.0
2019-Jun-08 12:44N 33°44' W 118°17'0 0.0
2019-Jun-08 12:30N 33°44' W 118°17'0 0.0
2019-Jun-08 11:55N 33°44' W 118°17'0 0.0
2019-Jun-08 11:26N 33°44' W 118°17'0 0.0
2019-Jun-08 11:01N 33°44' W 118°17'0 0.0
2019-Jun-08 10:21N 33°44' W 118°17'0 0.0
2019-Jun-08 09:33N 33°44' W 118°17'0 0.0
2019-Jun-08 08:56N 33°44' W 118°17'0 0.0
2019-Jun-08 08:27N 33°44' W 118°17'0 0.0
2019-Jun-08 07:48N 33°44' W 118°17'0 0.0
2019-Jun-08 07:24N 33°44' W 118°17'0 0.0
2019-Jun-08 06:59N 33°44' W 118°17'0 0.0
2019-Jun-08 06:06N 33°44' W 118°17'0 0.0
2019-Jun-08 05:58N 33°44' W 118°17'0 0.0
2019-Jun-08 05:07N 33°44' W 118°17'0 0.0
2019-Jun-08 04:54N 33°44' W 118°17'0 0.0
2019-Jun-08 04:16N 33°44' W 118°17'0 0.0
2019-Jun-08 03:57N 33°44' W 118°17'0 0.0
2019-Jun-08 03:24N 33°44' W 118°17'0 0.0
2019-Jun-08 02:52N 33°44' W 118°17'0 0.0
2019-Jun-08 02:26N 33°44' W 118°17'0 0.0
2019-Jun-08 01:58N 33°44' W 118°17'0 0.0
2019-Jun-08 01:25N 33°44' W 118°17'0 0.0
2019-Jun-08 00:59N 33°44' W 118°17'0 0.0
2019-Jun-08 00:29N 33°44' W 118°17'0 0.0
2019-Jun-08 00:00N 33°44' W 118°17'0 0.0
2019-Jun-07 23:23N 33°44' W 118°17'0 0.0
2019-Jun-07 22:44N 33°44' W 118°17'0 0.0
2019-Jun-07 22:21N 33°44' W 118°17'0 0.0
2019-Jun-07 22:00N 33°44' W 118°17'0 0.0
2019-Jun-07 21:30N 33°44' W 118°17'0 0.0
2019-Jun-07 20:59N 33°44' W 118°17'0 0.0
2019-Jun-07 20:27N 33°44' W 118°17'0 0.0
2019-Jun-07 20:01N 33°44' W 118°17'0 0.0
2019-Jun-07 19:24N 33°44' W 118°17'0 0.0
2019-Jun-07 18:56N 33°44' W 118°17'0 0.0
2019-Jun-07 18:29N 33°44' W 118°17'0 0.0
2019-Jun-07 17:58N 33°44' W 118°17'0 0.0
2019-Jun-07 17:30N 33°44' W 118°17'0 0.0
2019-Jun-07 17:01N 33°44' W 118°17'0 0.0
2019-Jun-07 16:30N 33°44' W 118°17'0 0.0
2019-Jun-07 15:56N 33°44' W 118°17'0 0.0
2019-Jun-07 15:19N 33°44' W 118°17'0 0.0
2019-Jun-07 14:59N 33°44' W 118°17'0 0.0
2019-Jun-07 14:21N 33°44' W 118°17'0 0.0
2019-Jun-07 14:00N 33°44' W 118°17'0 0.0
2019-Jun-07 13:30N 33°44' W 118°17'0 0.0
2019-Jun-07 12:59N 33°44' W 118°17'0 0.0
2019-Jun-07 12:25N 33°44' W 118°17'0 0.0
2019-Jun-07 11:45N 33°44' W 118°17'0 0.0
2019-Jun-07 11:30N 33°44' W 118°17'0 0.0
2019-Jun-07 10:51N 33°44' W 118°17'0 0.0
2019-Jun-07 10:27N 33°44' W 118°17'0 0.0
2019-Jun-07 09:47N 33°44' W 118°17'0 0.0
2019-Jun-07 09:18N 33°44' W 118°17'0 0.0
2019-Jun-07 09:00N 33°44' W 118°17'0 0.0
2019-Jun-07 08:30N 33°44' W 118°17'0 0.0
2019-Jun-07 08:01N 33°44' W 118°17'0 0.0
2019-Jun-07 07:23N 33°44' W 118°17'0 0.0
2019-Jun-07 06:40N 33°44' W 118°17'0 0.0
2019-Jun-07 06:23N 33°44' W 118°17'0 0.0
2019-Jun-07 05:49N 33°44' W 118°17'0 0.0
2019-Jun-07 05:29N 33°44' W 118°17'0 0.0
2019-Jun-07 04:52N 33°44' W 118°17'0 0.0
2019-Jun-07 04:27N 33°44' W 118°17'0 0.0
2019-Jun-07 04:00N 33°44' W 118°17'0 0.0
2019-Jun-07 03:06N 33°44' W 118°17'0 0.0
2019-Jun-07 02:55N 33°44' W 118°17'0 0.0
2019-Jun-07 02:22N 33°44' W 118°17'0 0.0
2019-Jun-07 01:55N 33°44' W 118°17'0 0.0
2019-Jun-07 01:25N 33°44' W 118°17'0 0.0
2019-Jun-07 00:59N 33°44' W 118°17'0 0.0
2019-Jun-07 00:26N 33°44' W 118°17'0 0.0
2019-Jun-06 23:59N 33°44' W 118°17'0 0.0
2019-Jun-06 23:28N 33°44' W 118°17'0 0.0
2019-Jun-06 22:59N 33°44' W 118°17'0 0.0
2019-Jun-06 22:26N 33°44' W 118°17'0 0.0
2019-Jun-06 21:57N 33°44' W 118°17'0 0.0
2019-Jun-06 21:25N 33°44' W 118°17'0 0.0
2019-Jun-06 21:00N 33°44' W 118°17'0 0.0
2019-Jun-06 20:30N 33°44' W 118°17'0 0.0
2019-Jun-06 19:51N 33°44' W 118°17'0 0.0
2019-Jun-06 19:29N 33°44' W 118°17'0 0.0
2019-Jun-06 18:59N 33°44' W 118°17'0 0.0
2019-Jun-06 18:25N 33°44' W 118°17'0 0.0
2019-Jun-06 17:56N 33°44' W 118°17'0 0.0
2019-Jun-06 17:30N 33°44' W 118°17'0 0.0
2019-Jun-06 17:00N 33°44' W 118°17'0 0.0
2019-Jun-06 16:29N 33°44' W 118°17'0 0.0
2019-Jun-06 15:57N 33°44' W 118°17'0 0.0
2019-Jun-06 15:29N 33°44' W 118°17'0 0.0
2019-Jun-06 15:00N 33°44' W 118°17'0 0.0
2019-Jun-06 14:28N 33°44' W 118°17'0 0.0
2019-Jun-06 13:58N 33°44' W 118°17'0 0.0
2019-Jun-06 13:27N 33°44' W 118°17'0 0.0
2019-Jun-06 12:58N 33°44' W 118°17'0 0.0
2019-Jun-06 12:29N 33°44' W 118°17'0 0.0
2019-Jun-06 12:00N 33°44' W 118°17'0 0.0
2019-Jun-06 11:11N 33°44' W 118°17'0 0.0
2019-Jun-06 10:56N 33°44' W 118°17'0 0.0
2019-Jun-06 10:21N 33°44' W 118°17'0 0.0
2019-Jun-06 09:55N 33°44' W 118°17'0 0.0
2019-Jun-06 09:24N 33°44' W 118°17'0 0.0
2019-Jun-06 08:56N 33°44' W 118°17'0 0.0
2019-Jun-06 08:21N 33°44' W 118°17'0 0.0
2019-Jun-06 07:53N 33°44' W 118°17'0 0.0
2019-Jun-06 07:24N 33°44' W 118°17'0 0.0
2019-Jun-06 06:58N 33°44' W 118°17'0 0.0
2019-Jun-06 06:28N 33°44' W 118°17'0 0.0
2019-Jun-06 05:59N 33°44' W 118°17'0 0.0
2019-Jun-06 05:30N 33°44' W 118°17'0 0.0
2019-Jun-06 04:59N 33°44' W 118°17'0 0.0
2019-Jun-06 04:22N 33°44' W 118°17'0 0.0
2019-Jun-06 03:55N 33°44' W 118°17'0 0.0
2019-Jun-06 03:29N 33°44' W 118°17'0 0.0
2019-Jun-06 02:58N 33°44' W 118°17'0 0.0
2019-Jun-06 02:21N 33°44' W 118°17'0 0.0
2019-Jun-06 01:58N 33°44' W 118°17'0 0.0
2019-Jun-06 01:25N 33°44' W 118°17'  

Dump ship's entire track history